createdAt,value
2018-07-08T00:00:21.040Z,17.30
2018-07-08T00:02:51.056Z,17.30
2018-07-08T00:05:20.528Z,17.30
2018-07-08T00:10:18.805Z,17.40
2018-07-08T00:12:48.081Z,17.40
2018-07-08T00:15:18.045Z,17.40
2018-07-08T00:17:47.317Z,17.30
2018-07-08T00:20:16.400Z,17.30
2018-07-08T00:22:45.609Z,17.20
2018-07-08T00:25:14.682Z,17.10
2018-07-08T00:27:44.054Z,17.10
2018-07-08T00:30:13.451Z,17.00
2018-07-08T00:32:42.752Z,17.00
2018-07-08T00:35:11.930Z,17.00
2018-07-08T00:37:41.082Z,16.90
2018-07-08T00:40:10.626Z,16.90
2018-07-08T00:42:39.901Z,16.80
2018-07-08T00:45:09.119Z,16.80
2018-07-08T00:47:38.317Z,16.80
2018-07-08T00:50:07.804Z,16.80
2018-07-08T00:52:36.876Z,16.80
2018-07-08T00:55:06.083Z,16.70
2018-07-08T00:57:35.338Z,16.70
2018-07-08T01:00:04.605Z,16.70
2018-07-08T01:02:33.711Z,16.70
2018-07-08T01:05:03.704Z,16.70
2018-07-08T01:07:33.505Z,16.70
2018-07-08T01:10:02.697Z,16.60
2018-07-08T01:12:33.156Z,16.60
2018-07-08T01:15:02.314Z,16.60
2018-07-08T01:17:31.431Z,16.60
2018-07-08T01:20:01.176Z,16.60
2018-07-08T01:22:30.784Z,16.50
2018-07-08T01:25:15.870Z,16.50
2018-07-08T01:27:44.965Z,16.40
2018-07-08T01:30:15.183Z,16.40
2018-07-08T01:32:44.443Z,16.30
2018-07-08T01:35:14.145Z,16.30
2018-07-08T01:37:44.377Z,16.30
2018-07-08T01:40:14.105Z,16.30
2018-07-08T01:42:43.931Z,16.20
2018-07-08T01:45:13.193Z,16.20
2018-07-08T01:47:43.809Z,16.20
2018-07-08T01:50:13.848Z,16.20
2018-07-08T01:52:43.876Z,16.20
2018-07-08T01:55:13.464Z,16.20
2018-07-08T01:57:42.673Z,16.10
2018-07-08T02:02:41.060Z,16.10
2018-07-08T02:05:10.138Z,16.10
2018-07-08T02:07:39.354Z,16.10
2018-07-08T02:10:08.794Z,16.10
2018-07-08T02:12:38.248Z,16.10
2018-07-08T02:15:07.518Z,16.00
2018-07-08T02:17:36.893Z,16.00
2018-07-08T02:20:06.773Z,16.00
2018-07-08T02:22:35.985Z,16.00
2018-07-08T02:25:05.290Z,16.00
2018-07-08T02:27:34.973Z,16.00
2018-07-08T02:30:04.190Z,15.90
2018-07-08T02:32:33.528Z,15.90
2018-07-08T02:35:03.262Z,15.90
2018-07-08T02:37:32.373Z,15.80
2018-07-08T02:40:01.710Z,15.80
2018-07-08T02:42:30.984Z,15.80
2018-07-08T02:45:01.174Z,15.70
2018-07-08T02:47:31.173Z,15.70
2018-07-08T02:50:01.769Z,15.70
2018-07-08T02:52:31.110Z,15.70
2018-07-08T02:55:00.697Z,15.60
2018-07-08T02:57:29.877Z,15.60
2018-07-08T02:59:58.991Z,15.60
2018-07-08T03:02:28.168Z,15.60
2018-07-08T03:04:57.232Z,15.50
2018-07-08T03:07:26.555Z,15.50
2018-07-08T03:09:56.905Z,15.40
2018-07-08T03:12:26.712Z,15.40
2018-07-08T03:14:55.888Z,15.40
2018-07-08T03:17:25.725Z,15.40
2018-07-08T03:19:54.890Z,15.40
2018-07-08T03:22:23.883Z,15.40
2018-07-08T03:24:53.080Z,15.40
2018-07-08T03:27:22.272Z,15.40
2018-07-08T03:29:51.351Z,15.40
2018-07-08T03:32:20.345Z,15.30
2018-07-08T03:34:49.388Z,15.30
2018-07-08T03:37:18.635Z,15.30
2018-07-08T03:39:47.860Z,15.30
2018-07-08T03:42:17.624Z,15.30
2018-07-08T03:44:47.401Z,15.20
2018-07-08T03:47:16.550Z,15.20
2018-07-08T03:49:45.649Z,15.30
2018-07-08T03:52:14.776Z,15.20
2018-07-08T03:54:44.213Z,15.20
2018-07-08T03:57:13.471Z,15.20
2018-07-08T03:59:42.639Z,15.30
2018-07-08T04:02:11.903Z,15.30
2018-07-08T04:04:42.193Z,15.30
2018-07-08T04:07:12.346Z,15.30
2018-07-08T04:09:41.573Z,15.30
2018-07-08T04:12:12.285Z,15.30
2018-07-08T04:14:41.441Z,15.30
2018-07-08T04:17:10.500Z,15.40
2018-07-08T04:19:40.474Z,15.40
2018-07-08T04:22:10.233Z,15.40
2018-07-08T04:24:39.498Z,15.50
2018-07-08T04:27:08.654Z,15.50
2018-07-08T04:29:37.670Z,15.60
2018-07-08T04:32:06.912Z,15.70
2018-07-08T04:34:36.261Z,15.70
2018-07-08T04:37:05.953Z,15.70
2018-07-08T04:39:35.056Z,15.70
2018-07-08T04:42:04.376Z,15.80
2018-07-08T04:44:33.543Z,15.80
2018-07-08T04:47:02.772Z,15.90
2018-07-08T04:49:32.084Z,15.90
2018-07-08T04:52:01.366Z,15.90
2018-07-08T04:54:30.529Z,15.90
2018-07-08T04:57:00.059Z,16.00
2018-07-08T04:59:29.072Z,16.00
2018-07-08T05:01:58.219Z,16.10
2018-07-08T05:04:27.340Z,16.10
2018-07-08T05:06:56.517Z,16.20
2018-07-08T05:09:25.757Z,16.20
2018-07-08T05:11:55.199Z,16.30
2018-07-08T05:14:25.789Z,16.30
2018-07-08T05:16:54.812Z,16.40
2018-07-08T05:19:24.484Z,16.50
2018-07-08T05:21:53.951Z,16.50
2018-07-08T05:24:23.821Z,16.60
2018-07-08T05:26:53.140Z,16.60
2018-07-08T05:29:22.257Z,16.70
2018-07-08T05:31:52.812Z,16.80
2018-07-08T05:34:21.894Z,16.80
2018-07-08T05:36:52.047Z,16.90
2018-07-08T05:39:21.498Z,17.00
2018-07-08T05:41:51.583Z,17.10
2018-07-08T05:44:21.202Z,17.20
2018-07-08T05:46:50.861Z,17.30
2018-07-08T05:49:21.808Z,17.40
2018-07-08T05:51:50.915Z,17.60
2018-07-08T05:54:22.511Z,17.60
2018-07-08T05:56:51.743Z,17.70
2018-07-08T05:59:22.697Z,17.80
2018-07-08T06:01:53.901Z,18.00
2018-07-08T06:04:25.686Z,18.10
2018-07-08T06:06:55.799Z,18.30
2018-07-08T06:09:25.859Z,18.40
2018-07-08T06:11:56.783Z,18.40
2018-07-08T06:14:27.480Z,18.50
2018-07-08T06:16:57.204Z,18.60
2018-07-08T06:19:26.424Z,18.70
2018-07-08T06:21:55.698Z,18.80
2018-07-08T06:24:25.161Z,18.80
2018-07-08T06:26:55.632Z,18.90
2018-07-08T06:29:24.833Z,19.00
2018-07-08T06:31:54.048Z,19.00
2018-07-08T06:34:23.599Z,19.10
2018-07-08T06:36:53.650Z,19.00
2018-07-08T06:39:23.072Z,19.00
2018-07-08T06:41:52.735Z,19.10
2018-07-08T06:44:24.161Z,19.20
2018-07-08T06:46:55.508Z,19.30
2018-07-08T06:49:25.839Z,19.40
2018-07-08T06:51:55.118Z,19.50
2018-07-08T06:54:25.070Z,19.50
2018-07-08T06:56:54.835Z,19.60
2018-07-08T06:59:24.284Z,19.70
2018-07-08T07:01:54.031Z,19.70
2018-07-08T07:04:23.782Z,19.80
2018-07-08T07:06:53.768Z,20.00
2018-07-08T07:09:23.332Z,20.10
2018-07-08T07:11:52.754Z,20.20
2018-07-08T07:14:21.933Z,20.30
2018-07-08T07:16:51.465Z,20.40
2018-07-08T07:19:21.638Z,20.60
2018-07-08T07:21:50.819Z,20.70
2018-07-08T07:24:22.560Z,20.80
2018-07-08T07:26:52.331Z,20.80
2018-07-08T07:29:22.268Z,20.80
2018-07-08T07:31:51.740Z,20.90
2018-07-08T07:34:21.072Z,20.90
2018-07-08T07:36:50.528Z,21.00
2018-07-08T07:39:19.802Z,21.10
2018-07-08T07:44:19.848Z,21.30
2018-07-08T07:46:49.414Z,21.30
2018-07-08T07:49:18.635Z,21.40
2018-07-08T07:51:47.960Z,21.60
2018-07-08T07:54:17.103Z,21.70
2018-07-08T07:56:46.217Z,21.70
2018-07-08T07:59:15.648Z,21.70
2018-07-08T08:01:44.977Z,21.90
2018-07-08T08:04:15.120Z,22.10
2018-07-08T08:06:44.857Z,22.30
2018-07-08T08:09:14.272Z,22.40
2018-07-08T08:11:44.148Z,22.60
2018-07-08T08:14:13.268Z,22.50
2018-07-08T08:16:42.365Z,22.60
2018-07-08T08:19:13.028Z,22.70
2018-07-08T08:21:43.507Z,22.80
2018-07-08T08:24:13.478Z,23.00
2018-07-08T08:26:44.249Z,23.20
2018-07-08T08:29:15.138Z,23.20
2018-07-08T08:31:45.390Z,23.20
2018-07-08T08:35:20.295Z,23.20
2018-07-08T08:37:51.326Z,23.30
2018-07-08T08:40:21.670Z,23.50
2018-07-08T08:42:50.852Z,23.50
2018-07-08T08:45:21.712Z,23.70
2018-07-08T08:47:51.768Z,23.90
2018-07-08T08:50:21.628Z,23.90
2018-07-08T08:52:50.865Z,24.20
2018-07-08T08:55:20.089Z,24.30
2018-07-08T08:57:49.180Z,24.40
2018-07-08T09:00:19.245Z,24.40
2018-07-08T09:02:49.497Z,24.50
2018-07-08T09:05:19.617Z,24.60
2018-07-08T09:07:49.072Z,24.60
2018-07-08T09:10:18.695Z,24.60
2018-07-08T09:12:47.973Z,24.70
2018-07-08T09:15:18.102Z,25.00
2018-07-08T09:17:47.192Z,25.20
2018-07-08T09:20:16.509Z,25.20
2018-07-08T09:22:45.641Z,25.30
2018-07-08T09:25:15.094Z,25.30
2018-07-08T09:27:45.167Z,25.30
2018-07-08T09:30:14.292Z,25.30
2018-07-08T09:32:43.911Z,25.30
2018-07-08T09:35:13.209Z,25.50
2018-07-08T09:37:42.487Z,25.70
2018-07-08T09:40:11.810Z,25.80
2018-07-08T09:42:40.965Z,25.90
2018-07-08T09:45:10.408Z,25.80
2018-07-08T09:47:39.701Z,26.10
2018-07-08T09:52:37.733Z,26.10
2018-07-08T09:55:07.510Z,26.20
2018-07-08T09:57:37.312Z,26.10
2018-07-08T10:00:07.342Z,26.20
2018-07-08T10:02:37.800Z,26.40
2018-07-08T10:05:08.109Z,26.20
2018-07-08T10:07:37.452Z,26.30
2018-07-08T10:10:06.684Z,26.40
2018-07-08T10:12:36.475Z,26.50
2018-07-08T10:15:05.949Z,26.60
2018-07-08T10:17:35.339Z,26.40
2018-07-08T10:20:04.684Z,26.20
2018-07-08T10:22:33.849Z,26.20
2018-07-08T10:25:03.163Z,26.40
2018-07-08T10:27:50.262Z,26.70
2018-07-08T10:30:19.491Z,27.00
2018-07-08T10:32:49.062Z,27.10
2018-07-08T10:36:22.932Z,27.10
2018-07-08T10:38:52.083Z,27.40
2018-07-08T10:41:21.340Z,27.50
2018-07-08T10:43:51.429Z,27.40
2018-07-08T10:46:25.083Z,27.50
2018-07-08T10:48:54.505Z,27.50
2018-07-08T10:51:25.232Z,27.40
2018-07-08T10:53:54.418Z,27.20
2018-07-08T10:56:24.824Z,27.40
2018-07-08T10:58:54.098Z,27.10
2018-07-08T11:01:23.446Z,27.10
2018-07-08T11:03:52.776Z,27.30
2018-07-08T11:06:21.889Z,27.60
2018-07-08T11:08:50.928Z,27.60
2018-07-08T11:11:20.692Z,27.60
2018-07-08T11:13:49.961Z,27.70
2018-07-08T11:16:19.080Z,27.60
2018-07-08T11:18:48.591Z,27.50
2018-07-08T11:21:18.734Z,27.70
2018-07-08T11:23:47.985Z,27.70
2018-07-08T11:26:17.633Z,27.70
2018-07-08T11:28:47.682Z,27.80
2018-07-08T11:31:17.380Z,27.90
2018-07-08T11:33:47.260Z,28.00
2018-07-08T11:36:17.388Z,28.10
2018-07-08T11:38:46.610Z,28.20
2018-07-08T11:41:15.958Z,28.20
2018-07-08T11:43:45.192Z,28.20
2018-07-08T11:48:43.858Z,28.40
2018-07-08T11:51:13.188Z,28.20
2018-07-08T11:53:42.855Z,28.40
2018-07-08T11:56:12.034Z,28.50
2018-07-08T11:58:42.301Z,28.40
2018-07-08T12:01:11.523Z,28.10
2018-07-08T12:03:41.678Z,28.10
2018-07-08T12:06:10.835Z,28.10
2018-07-08T12:08:39.885Z,27.90
2018-07-08T12:11:09.027Z,27.80
2018-07-08T12:13:38.650Z,27.80
2018-07-08T12:16:07.961Z,27.70
2018-07-08T12:18:38.029Z,27.80
2018-07-08T12:21:07.770Z,27.80
2018-07-08T12:23:40.129Z,27.90
2018-07-08T12:26:10.448Z,28.00
2018-07-08T12:28:39.556Z,28.10
2018-07-08T12:31:09.476Z,28.20
2018-07-08T12:33:39.517Z,28.20
2018-07-08T12:36:09.550Z,28.20
2018-07-08T12:38:39.081Z,28.00
2018-07-08T12:41:08.915Z,27.80
2018-07-08T12:43:39.781Z,27.70
2018-07-08T12:46:10.846Z,28.00
2018-07-08T12:48:41.684Z,28.20
2018-07-08T12:51:12.262Z,28.10
2018-07-08T12:53:41.331Z,27.90
2018-07-08T12:56:12.412Z,27.70
2018-07-08T12:58:43.106Z,27.50
2018-07-08T13:01:12.345Z,27.60
2018-07-08T13:06:10.404Z,27.80
2018-07-08T13:08:39.617Z,28.00
2018-07-08T13:11:08.790Z,27.80
2018-07-08T13:13:38.209Z,27.70
2018-07-08T13:16:07.621Z,27.70
2018-07-08T13:18:37.253Z,27.70
2018-07-08T13:21:06.579Z,27.70
2018-07-08T13:23:35.689Z,27.70
2018-07-08T13:26:04.967Z,27.60
2018-07-08T13:28:34.101Z,27.40
2018-07-08T13:31:03.528Z,27.50
2018-07-08T13:33:32.637Z,27.50
2018-07-08T13:36:02.271Z,27.30
2018-07-08T13:38:31.497Z,27.20
2018-07-08T13:41:00.840Z,27.20
2018-07-08T13:43:30.424Z,27.10
2018-07-08T13:45:59.710Z,27.00
2018-07-08T13:48:29.062Z,27.00
2018-07-08T13:50:58.386Z,27.00
2018-07-08T13:53:27.923Z,27.00
2018-07-08T13:55:57.287Z,27.00
2018-07-08T13:58:26.880Z,27.00
2018-07-08T14:00:56.148Z,27.00
2018-07-08T14:03:25.974Z,27.00
2018-07-08T14:05:55.345Z,27.00
2018-07-08T14:08:24.645Z,27.10
2018-07-08T14:10:54.626Z,27.10
2018-07-08T14:13:24.794Z,27.10
2018-07-08T14:15:54.908Z,27.10
2018-07-08T14:18:24.558Z,27.00
2018-07-08T14:20:54.010Z,26.70
2018-07-08T14:23:23.424Z,26.70
2018-07-08T14:25:52.621Z,26.70
2018-07-08T14:28:21.862Z,26.70
2018-07-08T14:30:51.101Z,26.80
2018-07-08T14:33:20.330Z,26.80
2018-07-08T14:35:49.653Z,26.80
2018-07-08T14:38:18.897Z,26.80
2018-07-08T14:40:48.075Z,26.90
2018-07-08T14:43:17.823Z,26.80
2018-07-08T14:45:46.998Z,26.80
2018-07-08T14:48:16.197Z,26.90
2018-07-08T14:50:45.329Z,26.90
2018-07-08T14:53:14.630Z,26.80
2018-07-08T14:55:43.772Z,26.80
2018-07-08T14:58:12.906Z,26.90
2018-07-08T15:00:42.073Z,26.80
2018-07-08T15:03:11.297Z,26.80
2018-07-08T15:05:40.436Z,26.80
2018-07-08T15:08:10.559Z,26.60
2018-07-08T15:10:39.683Z,26.50
2018-07-08T15:13:08.956Z,26.40
2018-07-08T15:15:38.131Z,26.30
2018-07-08T15:18:07.293Z,26.40
2018-07-08T15:20:36.496Z,26.30
2018-07-08T15:23:05.569Z,26.30
2018-07-08T15:25:34.569Z,26.30
2018-07-08T15:28:03.752Z,26.30
2018-07-08T15:30:33.387Z,26.20
2018-07-08T15:33:03.994Z,26.10
2018-07-08T15:35:33.217Z,26.00
2018-07-08T15:38:02.431Z,26.00
2018-07-08T15:40:31.800Z,25.90
2018-07-08T15:43:00.894Z,25.80
2018-07-08T15:45:30.014Z,25.80
2018-07-08T15:47:59.098Z,25.80
2018-07-08T15:50:28.854Z,25.70
2018-07-08T15:52:58.222Z,25.70
2018-07-08T15:55:27.374Z,25.70
2018-07-08T15:57:56.524Z,25.60
2018-07-08T16:02:54.600Z,25.70
2018-07-08T16:05:23.673Z,25.60
2018-07-08T16:07:52.904Z,25.60
2018-07-08T16:10:22.210Z,25.60
2018-07-08T16:12:51.382Z,25.60
2018-07-08T16:15:20.656Z,25.50
2018-07-08T16:17:49.893Z,25.40
2018-07-08T16:20:19.130Z,25.40
2018-07-08T16:22:48.968Z,25.40
2018-07-08T16:25:18.424Z,25.40
2018-07-08T16:30:17.014Z,25.40
2018-07-08T16:32:46.788Z,25.40
2018-07-08T16:35:16.485Z,25.30
2018-07-08T16:37:45.679Z,25.30
2018-07-08T16:40:15.703Z,25.30
2018-07-08T16:42:45.553Z,25.20
2018-07-08T16:45:15.187Z,25.20
2018-07-08T16:47:44.608Z,25.20
2018-07-08T16:50:13.915Z,25.20
2018-07-08T16:52:43.282Z,25.20
2018-07-08T16:55:12.728Z,25.10
2018-07-08T16:57:42.157Z,25.00
2018-07-08T17:00:12.850Z,25.00
2018-07-08T17:02:42.333Z,25.00
2018-07-08T17:05:11.518Z,24.90
2018-07-08T17:07:41.617Z,24.90
2018-07-08T17:10:11.603Z,24.90
2018-07-08T17:12:41.068Z,24.90
2018-07-08T17:15:11.832Z,24.80
2018-07-08T17:17:42.569Z,24.80
2018-07-08T17:20:13.779Z,24.70
2018-07-08T17:22:45.763Z,24.70
2018-07-08T17:25:15.952Z,24.70
2018-07-08T17:27:45.928Z,24.60
2018-07-08T17:30:16.674Z,24.60
2018-07-08T17:32:47.449Z,24.60
2018-07-08T17:35:18.674Z,24.60
2018-07-08T17:37:50.016Z,24.50
2018-07-08T17:40:20.058Z,24.60
2018-07-08T17:42:49.909Z,24.50
2018-07-08T17:45:21.067Z,24.40
2018-07-08T17:47:51.384Z,24.40
2018-07-08T17:50:20.844Z,24.40
2018-07-08T17:52:50.497Z,24.40
2018-07-08T17:55:20.704Z,24.30
2018-07-08T17:57:50.563Z,24.40
2018-07-08T18:00:20.203Z,24.30
2018-07-08T18:02:49.860Z,24.30
2018-07-08T18:05:19.762Z,24.20
2018-07-08T18:10:18.942Z,24.10
2018-07-08T18:12:49.028Z,24.10
2018-07-08T18:15:18.698Z,24.00
2018-07-08T18:17:48.151Z,24.00
2018-07-08T18:20:17.758Z,23.90
2018-07-08T18:22:48.051Z,23.90
2018-07-08T18:25:18.837Z,23.80
2018-07-08T18:27:49.392Z,23.80
